createdAt,value
2019-03-19T00:00:41.672Z,4.55
2019-03-19T00:03:13.017Z,4.83
2019-03-19T00:05:41.973Z,4.72
2019-03-19T00:08:10.965Z,4.95
2019-03-19T00:10:41.144Z,4.95
2019-03-19T00:13:13.423Z,4.87
2019-03-19T00:15:43.919Z,4.60
2019-03-19T00:18:14.454Z,4.12
2019-03-19T00:20:45.787Z,3.95
2019-03-19T00:23:17.591Z,3.37
2019-03-19T00:25:46.584Z,3.77
2019-03-19T00:28:15.618Z,3.52
2019-03-19T00:30:47.109Z,3.70
2019-03-19T00:33:16.048Z,3.05
2019-03-19T00:35:47.821Z,3.70
2019-03-19T00:38:17.945Z,3.42
2019-03-19T00:40:49.697Z,3.62
2019-03-19T00:43:20.266Z,3.02
2019-03-19T00:45:49.307Z,3.05
2019-03-19T00:48:18.340Z,3.65
2019-03-19T00:50:51.954Z,4.08
2019-03-19T00:53:18.417Z,3.58
2019-03-19T00:55:47.374Z,3.35
2019-03-19T00:58:16.330Z,3.65
2019-03-19T01:00:45.332Z,3.65
2019-03-19T01:03:14.430Z,3.70
2019-03-19T01:05:43.381Z,3.08
2019-03-19T01:08:17.528Z,3.47
2019-03-19T01:10:46.487Z,3.08
2019-03-19T01:13:17.530Z,3.72
2019-03-19T01:15:46.490Z,3.67
2019-03-19T01:18:15.537Z,3.90
2019-03-19T01:20:47.581Z,3.65
2019-03-19T01:23:17.392Z,3.70
2019-03-19T01:25:55.083Z,3.77
2019-03-19T01:28:19.147Z,4.22
2019-03-19T01:30:52.521Z,4.17
2019-03-19T01:33:18.774Z,4.20
2019-03-19T01:35:48.282Z,4.28
2019-03-19T01:38:17.273Z,4.12
2019-03-19T01:40:46.296Z,3.80
2019-03-19T01:43:15.339Z,4.30
2019-03-19T01:45:44.495Z,4.22
2019-03-19T01:48:13.426Z,4.47
2019-03-19T01:50:42.519Z,4.33
2019-03-19T01:53:11.450Z,3.63
2019-03-19T01:55:44.474Z,3.60
2019-03-19T01:58:15.666Z,3.90
2019-03-19T02:00:44.630Z,3.45
2019-03-19T02:03:13.600Z,3.37
2019-03-19T02:05:42.998Z,3.75
2019-03-19T02:08:14.047Z,3.70
2019-03-19T02:10:43.074Z,4.33
2019-03-19T02:13:12.105Z,4.03
2019-03-19T02:15:41.134Z,4.95
2019-03-19T02:18:10.170Z,3.90
2019-03-19T02:20:39.314Z,4.83
2019-03-19T02:23:09.438Z,5.17
2019-03-19T02:25:38.443Z,5.42
2019-03-19T02:28:13.269Z,4.95
2019-03-19T02:30:42.252Z,5.17
2019-03-19T02:33:13.425Z,5.17
2019-03-19T02:35:42.588Z,5.92
2019-03-19T02:38:11.813Z,5.30
2019-03-19T02:40:40.886Z,5.87
2019-03-19T02:43:09.877Z,5.72
2019-03-19T02:45:38.869Z,5.83
2019-03-19T02:48:07.841Z,6.05
2019-03-19T02:50:36.853Z,6.08
2019-03-19T02:53:05.879Z,7.08
2019-03-19T02:55:34.289Z,6.97
2019-03-19T02:58:04.725Z,7.40
2019-03-19T03:00:39.181Z,6.75
2019-03-19T03:03:08.209Z,7.37
2019-03-19T03:08:08.081Z,5.78
2019-03-19T03:10:37.346Z,5.40
2019-03-19T03:13:06.316Z,5.85
2019-03-19T03:15:35.323Z,5.42
2019-03-19T03:18:06.150Z,5.80
2019-03-19T03:20:35.127Z,6.20
2019-03-19T03:23:04.396Z,5.70
2019-03-19T03:25:33.368Z,6.20
2019-03-19T03:34:19.090Z,6.20
2019-03-19T03:36:53.382Z,7.83
2019-03-19T03:39:22.354Z,8.50
2019-03-19T03:41:53.147Z,8.18
2019-03-19T03:44:24.949Z,8.85
2019-03-19T03:46:53.914Z,7.55
2019-03-19T03:49:25.980Z,7.53
2019-03-19T03:51:54.940Z,7.58
2019-03-19T03:54:23.922Z,8.28
2019-03-19T03:57:01.771Z,8.23
2019-03-19T03:59:23.645Z,9.13
2019-03-19T04:01:54.886Z,9.13
2019-03-19T04:04:34.380Z,10.60
2019-03-19T04:07:00.518Z,10.65
2019-03-19T04:09:29.546Z,10.85
2019-03-19T04:11:58.523Z,11.10
2019-03-19T04:14:27.492Z,12.78
2019-03-19T04:16:56.528Z,14.23
2019-03-19T04:19:25.504Z,12.98
2019-03-19T04:21:57.197Z,10.85
2019-03-19T04:24:33.212Z,11.20
2019-03-19T04:27:14.871Z,9.60
2019-03-19T04:29:36.169Z,10.80
2019-03-19T04:32:05.126Z,10.18
2019-03-19T04:34:35.285Z,9.95
2019-03-19T04:37:10.433Z,10.75
2019-03-19T04:39:39.430Z,11.30
2019-03-19T04:42:08.392Z,10.05
2019-03-19T04:44:39.914Z,10.68
2019-03-19T04:47:08.887Z,10.80
2019-03-19T04:49:39.070Z,10.98
2019-03-19T04:52:08.046Z,10.98
2019-03-19T04:54:37.185Z,11.05
2019-03-19T04:57:06.199Z,11.80
2019-03-19T04:59:35.202Z,13.70
2019-03-19T05:02:04.516Z,12.55
2019-03-19T05:04:34.185Z,12.93
2019-03-19T05:07:04.801Z,12.68
2019-03-19T05:09:36.568Z,11.30
2019-03-19T05:12:07.828Z,11.70
2019-03-19T05:14:36.848Z,11.53
2019-03-19T05:17:06.133Z,10.82
2019-03-19T05:19:35.126Z,10.80
2019-03-19T05:22:04.093Z,11.70
2019-03-19T05:24:33.081Z,11.03
2019-03-19T05:27:02.049Z,11.80
2019-03-19T05:29:33.818Z,12.20
2019-03-19T05:32:02.775Z,13.40
2019-03-19T05:34:31.760Z,15.30
2019-03-19T05:37:00.721Z,14.45
2019-03-19T05:39:33.115Z,13.10
2019-03-19T05:42:02.291Z,11.78
2019-03-19T05:44:31.823Z,12.27
2019-03-19T05:47:00.797Z,13.20
2019-03-19T05:49:29.825Z,12.50
2019-03-19T05:52:01.678Z,12.68
2019-03-19T05:54:33.506Z,11.78
2019-03-19T05:57:02.510Z,12.43
2019-03-19T05:59:31.517Z,13.48
2019-03-19T06:02:01.070Z,13.18
2019-03-19T06:04:30.033Z,12.50
2019-03-19T06:06:59.226Z,12.45
2019-03-19T06:09:28.163Z,13.53
2019-03-19T06:11:58.583Z,14.80
2019-03-19T06:14:27.563Z,15.18
2019-03-19T06:16:56.529Z,15.28
2019-03-19T06:19:25.514Z,15.40
2019-03-19T06:21:56.851Z,15.43
2019-03-19T06:26:56.637Z,14.03
2019-03-19T06:29:27.250Z,13.50
2019-03-19T06:32:00.004Z,13.60
2019-03-19T06:34:30.127Z,13.85
2019-03-19T06:39:31.868Z,12.93
2019-03-19T06:42:03.907Z,13.83
2019-03-19T06:44:32.248Z,13.88
2019-03-19T06:47:03.003Z,13.45
2019-03-19T06:49:32.067Z,12.95
2019-03-19T06:52:01.106Z,12.95
2019-03-19T06:54:30.136Z,12.73
2019-03-19T06:57:01.219Z,12.58
2019-03-19T06:59:30.219Z,12.60
2019-03-19T07:02:01.382Z,12.63
2019-03-19T07:04:30.504Z,12.75
2019-03-19T07:07:05.449Z,12.88
2019-03-19T07:09:34.418Z,13.40
2019-03-19T07:12:03.637Z,13.47
2019-03-19T07:14:32.669Z,13.95
2019-03-19T07:17:05.120Z,14.18
2019-03-19T07:19:34.122Z,14.87
2019-03-19T07:22:07.332Z,13.85
2019-03-19T07:24:36.330Z,13.90
2019-03-19T07:27:05.303Z,14.78
2019-03-19T07:29:34.293Z,14.45
2019-03-19T07:32:03.322Z,14.00
2019-03-19T07:34:32.354Z,14.30
2019-03-19T07:37:02.935Z,13.75
2019-03-19T07:39:35.102Z,13.45
2019-03-19T07:42:04.072Z,13.72
2019-03-19T07:44:34.575Z,14.03
2019-03-19T07:47:05.167Z,13.53
2019-03-19T07:49:34.150Z,12.93
2019-03-19T07:52:07.122Z,14.15
2019-03-19T07:54:38.985Z,13.85
2019-03-19T07:57:08.002Z,14.43
2019-03-19T07:59:37.029Z,13.78
2019-03-19T08:02:08.358Z,13.58
2019-03-19T08:04:37.331Z,13.85
2019-03-19T08:07:06.321Z,12.95
2019-03-19T08:09:35.980Z,13.78
2019-03-19T08:12:06.792Z,14.25
2019-03-19T08:14:37.238Z,14.57
2019-03-19T08:17:06.269Z,14.50
2019-03-19T08:19:35.781Z,14.68
2019-03-19T08:22:08.395Z,15.63
2019-03-19T08:24:37.424Z,15.18
2019-03-19T08:27:06.431Z,15.70
2019-03-19T08:29:36.929Z,15.53
2019-03-19T08:32:06.257Z,15.28
2019-03-19T08:34:38.037Z,16.37
2019-03-19T08:37:07.085Z,15.40
2019-03-19T08:39:37.629Z,16.12
2019-03-19T08:42:06.671Z,15.43
2019-03-19T08:48:46.101Z,15.53
2019-03-19T08:51:15.077Z,15.10
2019-03-19T08:53:49.271Z,15.50
2019-03-19T08:56:20.074Z,15.32
2019-03-19T08:58:49.115Z,15.20
2019-03-19T09:01:18.117Z,15.60
2019-03-19T09:03:47.249Z,14.65
2019-03-19T09:06:16.233Z,15.70
2019-03-19T09:08:45.274Z,15.45
2019-03-19T09:11:17.094Z,15.43
2019-03-19T09:13:46.088Z,15.58
2019-03-19T09:16:20.062Z,14.55
2019-03-19T09:18:51.324Z,15.18
2019-03-19T09:21:20.320Z,16.05
2019-03-19T09:23:49.270Z,16.45
2019-03-19T09:26:20.534Z,15.60
2019-03-19T09:28:52.356Z,15.32
2019-03-19T09:31:23.402Z,16.37
2019-03-19T09:33:52.368Z,15.55
2019-03-19T09:36:23.390Z,15.72
2019-03-19T09:38:52.375Z,15.40
2019-03-19T09:41:24.514Z,16.00
2019-03-19T09:43:55.587Z,14.93
2019-03-19T09:46:24.560Z,15.55
2019-03-19T09:48:53.573Z,15.83
2019-03-19T09:51:22.609Z,15.35
2019-03-19T09:53:51.626Z,15.60
2019-03-19T09:56:20.650Z,15.07
2019-03-19T09:58:49.697Z,15.83
2019-03-19T10:01:20.783Z,15.50
2019-03-19T10:03:51.427Z,14.95
2019-03-19T10:06:20.563Z,14.40
2019-03-19T10:08:49.696Z,15.43
2019-03-19T10:11:18.631Z,15.33
2019-03-19T10:13:47.597Z,15.58
2019-03-19T10:16:16.569Z,15.70
2019-03-19T10:18:47.217Z,16.42
2019-03-19T10:21:17.249Z,15.00
2019-03-19T10:23:49.074Z,15.03
2019-03-19T10:26:18.165Z,15.30
2019-03-19T10:28:47.158Z,15.67
2019-03-19T10:31:16.153Z,14.13
2019-03-19T10:33:45.162Z,15.15
2019-03-19T10:36:17.379Z,14.35
2019-03-19T10:38:46.600Z,15.53
2019-03-19T10:41:15.557Z,15.40
2019-03-19T10:43:48.205Z,15.30
2019-03-19T10:46:17.167Z,14.73
2019-03-19T10:48:46.197Z,14.50
2019-03-19T10:51:15.149Z,13.45
2019-03-19T10:53:45.107Z,13.90
2019-03-19T10:58:43.795Z,13.00
2019-03-19T11:01:12.947Z,11.50
2019-03-19T11:03:41.866Z,12.60
2019-03-19T11:06:10.871Z,13.05
2019-03-19T11:08:39.895Z,12.40
2019-03-19T11:11:08.896Z,12.28
2019-03-19T11:13:37.838Z,12.30
2019-03-19T11:16:06.853Z,12.95
2019-03-19T11:18:37.077Z,13.13
2019-03-19T11:21:06.221Z,12.35
2019-03-19T11:23:35.177Z,12.87
2019-03-19T11:26:09.273Z,12.75
2019-03-19T11:28:38.275Z,11.60
2019-03-19T11:31:11.052Z,11.28
2019-03-19T11:33:41.595Z,12.03
2019-03-19T11:36:12.333Z,12.45
2019-03-19T11:38:41.391Z,12.82
2019-03-19T11:41:13.290Z,13.07
2019-03-19T11:43:42.306Z,12.60
2019-03-19T11:46:11.300Z,12.15
2019-03-19T11:48:43.267Z,11.85
2019-03-19T11:51:15.605Z,11.63
2019-03-19T11:53:47.606Z,10.98
2019-03-19T11:56:16.563Z,9.40
2019-03-19T11:58:48.017Z,9.33
2019-03-19T12:01:20.280Z,7.65
2019-03-19T12:03:50.888Z,7.90
2019-03-19T12:06:22.698Z,7.25
2019-03-19T12:08:51.654Z,6.78
2019-03-19T12:11:21.446Z,6.72
2019-03-19T12:13:50.574Z,6.50
2019-03-19T12:16:19.565Z,6.45
2019-03-19T12:18:49.946Z,6.93
2019-03-19T12:21:18.937Z,6.90
2019-03-19T12:23:49.431Z,5.92
2019-03-19T12:26:18.398Z,6.40
2019-03-19T12:28:47.388Z,6.72
2019-03-19T12:31:16.372Z,6.83
2019-03-19T12:33:45.302Z,7.62
2019-03-19T12:36:17.363Z,7.72
2019-03-19T12:38:46.384Z,7.90
2019-03-19T12:41:16.362Z,8.67
2019-03-19T12:43:45.542Z,8.65
2019-03-19T12:46:22.030Z,8.75
2019-03-19T12:48:50.990Z,7.55
2019-03-19T12:51:20.080Z,7.47
2019-03-19T12:53:52.176Z,8.17
2019-03-19T12:56:21.194Z,7.03
2019-03-19T12:58:50.324Z,6.85
2019-03-19T13:01:19.392Z,8.10
2019-03-19T13:03:48.631Z,7.25
2019-03-19T13:06:17.557Z,7.50
2019-03-19T13:08:46.550Z,6.12
2019-03-19T13:11:16.079Z,5.70
2019-03-19T13:13:45.183Z,5.37
2019-03-19T13:16:17.168Z,5.60
2019-03-19T13:18:49.980Z,4.28
2019-03-19T13:21:24.155Z,4.30
2019-03-19T13:23:53.204Z,4.58
2019-03-19T13:26:22.174Z,4.30
2019-03-19T13:28:52.209Z,4.72
2019-03-19T13:34:01.411Z,3.50
2019-03-19T13:36:30.369Z,4.17
2019-03-19T13:39:02.499Z,3.67
2019-03-19T13:41:35.201Z,3.20
2019-03-19T13:44:04.881Z,3.52
2019-03-19T13:46:34.030Z,3.33
2019-03-19T13:49:03.016Z,3.72
2019-03-19T13:51:31.981Z,3.65
2019-03-19T13:54:03.641Z,3.47
2019-03-19T13:56:32.757Z,3.27
2019-03-19T13:59:01.686Z,3.47
2019-03-19T14:01:34.309Z,3.20
2019-03-19T14:04:03.260Z,2.98
2019-03-19T14:06:32.238Z,3.40
2019-03-19T14:09:02.385Z,3.00
2019-03-19T14:11:32.482Z,2.77
2019-03-19T14:14:01.445Z,2.80
2019-03-19T14:16:31.085Z,3.10
2019-03-19T14:19:01.051Z,2.70
2019-03-19T14:21:33.112Z,2.47
2019-03-19T14:24:02.138Z,2.70
2019-03-19T14:26:31.651Z,2.72
2019-03-19T14:29:19.886Z,2.70
2019-03-19T14:31:44.704Z,2.62
2019-03-19T14:34:13.663Z,3.02
2019-03-19T14:36:48.808Z,3.27
2019-03-19T14:39:23.504Z,3.45
2019-03-19T14:41:52.456Z,3.20
2019-03-19T14:44:21.985Z,3.45
2019-03-19T14:46:51.380Z,3.52
2019-03-19T14:49:20.312Z,3.40
2019-03-19T14:51:49.340Z,3.40
2019-03-19T14:54:22.586Z,3.62
2019-03-19T14:56:53.148Z,3.27
2019-03-19T14:59:22.140Z,3.47
2019-03-19T15:01:51.147Z,3.30
2019-03-19T15:04:21.332Z,3.20
2019-03-19T15:06:53.544Z,3.17
2019-03-19T15:09:24.485Z,3.35
2019-03-19T15:11:53.426Z,2.90
2019-03-19T15:14:22.394Z,3.10
2019-03-19T15:16:51.356Z,3.00
2019-03-19T15:19:21.422Z,3.60
2019-03-19T15:21:51.087Z,3.58
2019-03-19T15:24:22.750Z,3.20
2019-03-19T15:26:55.019Z,3.45
2019-03-19T15:29:28.537Z,3.58
2019-03-19T15:31:58.155Z,3.42
2019-03-19T15:34:27.110Z,3.20
2019-03-19T15:36:56.070Z,3.65
2019-03-19T15:39:25.472Z,3.33
2019-03-19T15:41:54.445Z,2.83
2019-03-19T15:44:25.225Z,2.70
2019-03-19T15:46:54.220Z,2.83
2019-03-19T15:49:24.839Z,3.40
2019-03-19T15:51:58.354Z,2.90
2019-03-19T15:54:27.311Z,3.30
2019-03-19T15:56:56.311Z,3.17
2019-03-19T15:59:26.817Z,3.00
2019-03-19T16:01:57.341Z,3.37
2019-03-19T16:04:28.701Z,3.05
2019-03-19T16:07:02.926Z,3.80
2019-03-19T16:09:32.365Z,3.47
2019-03-19T16:12:06.450Z,3.65
2019-03-19T16:14:37.127Z,3.67
2019-03-19T16:17:07.625Z,2.75
2019-03-19T16:19:38.216Z,3.05
2019-03-19T16:22:11.195Z,3.17
2019-03-19T16:24:40.149Z,3.55
2019-03-19T16:27:09.097Z,3.65
2019-03-19T16:29:38.723Z,3.40
2019-03-19T16:32:07.731Z,3.60
2019-03-19T16:34:36.712Z,3.12
2019-03-19T16:37:07.161Z,3.10
2019-03-19T16:39:39.272Z,3.05
2019-03-19T16:42:08.540Z,3.25
2019-03-19T16:44:39.957Z,3.83
2019-03-19T16:47:12.334Z,3.98
2019-03-19T16:49:46.959Z,3.85
2019-03-19T16:52:15.933Z,3.10
2019-03-19T16:54:46.525Z,3.70
2019-03-19T16:57:18.604Z,3.50
2019-03-19T16:59:49.086Z,3.90
2019-03-19T17:02:18.684Z,3.87
2019-03-19T17:04:47.680Z,4.35
2019-03-19T17:07:16.956Z,4.80
2019-03-19T17:09:46.278Z,4.50
2019-03-19T17:12:16.482Z,4.45
2019-03-19T17:14:49.788Z,4.12
2019-03-19T17:17:19.400Z,3.35
2019-03-19T17:19:49.910Z,4.20
2019-03-19T17:22:19.022Z,4.10
2019-03-19T17:24:53.774Z,4.37
2019-03-19T17:27:23.926Z,4.42
2019-03-19T17:29:52.984Z,5.33
2019-03-19T17:32:22.250Z,4.80
2019-03-19T17:34:51.224Z,5.00
2019-03-19T17:37:20.210Z,5.67
2019-03-19T17:40:01.514Z,5.03
2019-03-19T17:42:33.284Z,5.87
2019-03-19T17:45:05.702Z,5.42
2019-03-19T17:47:36.381Z,4.65
2019-03-19T17:50:06.895Z,5.35
2019-03-19T17:52:36.548Z,5.70
2019-03-19T17:55:07.169Z,4.90
2019-03-19T17:57:37.807Z,5.80
2019-03-19T18:00:10.645Z,5.03
2019-03-19T18:02:39.630Z,4.95
2019-03-19T18:05:09.213Z,4.97
2019-03-19T18:07:38.307Z,5.20
2019-03-19T18:10:08.775Z,6.17
2019-03-19T18:12:43.300Z,5.92
2019-03-19T18:15:14.797Z,5.80
2019-03-19T18:17:46.394Z,6.08
2019-03-19T18:20:18.384Z,6.22
2019-03-19T18:22:48.661Z,6.62
2019-03-19T18:25:19.663Z,6.47
2019-03-19T18:27:58.291Z,6.35
2019-03-19T18:30:29.563Z,6.08
2019-03-19T18:33:01.357Z,6.90
2019-03-19T18:35:30.301Z,7.25
2019-03-19T18:37:59.285Z,7.33
2019-03-19T18:40:28.388Z,7.12
2019-03-19T18:42:57.349Z,7.50
2019-03-19T18:45:26.361Z,7.70
2019-03-19T18:47:58.221Z,7.50
2019-03-19T18:50:29.695Z,8.75
2019-03-19T18:53:01.983Z,10.32
2019-03-19T18:55:33.973Z,9.05
2019-03-19T18:58:04.430Z,9.58
2019-03-19T19:00:33.401Z,8.50
2019-03-19T19:03:04.203Z,9.83
2019-03-19T19:05:33.189Z,9.95
2019-03-19T19:08:02.200Z,9.85
2019-03-19T19:10:31.244Z,9.78
2019-03-19T19:13:00.311Z,9.45
2019-03-19T19:15:29.318Z,10.32
2019-03-19T19:17:58.352Z,10.88
2019-03-19T19:20:27.377Z,10.15
2019-03-19T19:22:56.933Z,10.35
2019-03-19T19:25:26.471Z,10.98
2019-03-19T19:27:57.849Z,10.40
2019-03-19T19:30:29.974Z,11.10
2019-03-19T19:33:01.873Z,11.55
2019-03-19T19:35:29.649Z,13.68
2019-03-19T19:38:00.250Z,11.93
2019-03-19T19:40:29.205Z,10.85
2019-03-19T19:43:03.131Z,10.93
2019-03-19T19:45:32.287Z,10.63
2019-03-19T19:48:03.844Z,11.10
2019-03-19T19:50:32.809Z,11.18
2019-03-19T19:53:01.814Z,11.20
2019-03-19T19:55:32.251Z,12.45
2019-03-19T19:58:01.806Z,11.70
2019-03-19T20:00:33.231Z,11.22
2019-03-19T20:03:12.221Z,11.15
2019-03-19T20:05:38.715Z,11.30
2019-03-19T20:08:08.882Z,11.78
2019-03-19T20:13:07.619Z,11.30
2019-03-19T20:15:36.608Z,12.47
2019-03-19T20:18:05.626Z,12.80
2019-03-19T20:23:03.788Z,11.85
2019-03-19T20:25:32.796Z,12.37
2019-03-19T20:28:01.826Z,12.00
2019-03-19T20:30:30.888Z,11.78
2019-03-19T20:33:02.021Z,12.90
2019-03-19T20:35:34.651Z,12.85
2019-03-19T20:38:03.309Z,12.63
2019-03-19T20:40:32.894Z,12.40
2019-03-19T20:43:12.844Z,13.13
2019-03-19T20:45:37.845Z,12.75
2019-03-19T20:48:06.934Z,12.43
2019-03-19T20:50:37.076Z,12.15
2019-03-19T20:53:06.281Z,12.60
2019-03-19T20:55:35.250Z,12.83
2019-03-19T20:58:04.730Z,12.65
2019-03-19T21:00:33.698Z,13.60
2019-03-19T21:03:02.691Z,13.85
2019-03-19T21:05:34.693Z,14.47
2019-03-19T21:08:06.803Z,13.88
2019-03-19T21:10:35.844Z,13.93
2019-03-19T21:13:05.127Z,14.75
2019-03-19T21:15:34.145Z,13.78
2019-03-19T21:18:05.515Z,13.88
2019-03-19T21:20:34.531Z,14.63
2019-03-19T21:23:03.489Z,14.68
2019-03-19T21:25:35.658Z,14.80
2019-03-19T21:28:14.390Z,14.98
2019-03-19T21:30:41.334Z,14.60
2019-03-19T21:33:11.825Z,15.50
2019-03-19T21:35:43.293Z,14.75
2019-03-19T21:38:12.286Z,16.17
2019-03-19T21:40:41.340Z,15.23
2019-03-19T21:43:10.620Z,15.85
2019-03-19T21:45:39.634Z,15.68
2019-03-19T21:48:08.641Z,16.73
2019-03-19T21:50:42.058Z,15.53
2019-03-19T21:53:16.310Z,14.50
2019-03-19T21:55:45.366Z,15.75
2019-03-19T21:58:14.342Z,16.87
2019-03-19T22:00:43.300Z,17.00
2019-03-19T22:03:12.664Z,17.00
2019-03-19T22:05:41.698Z,16.95
2019-03-19T22:08:15.870Z,16.17
2019-03-19T22:10:44.834Z,16.60
2019-03-19T22:13:13.804Z,16.87
2019-03-19T22:15:43.809Z,17.55
2019-03-19T22:18:12.810Z,17.90
2019-03-19T22:20:41.855Z,17.85
2019-03-19T22:23:10.814Z,20.32
2019-03-19T22:25:39.774Z,17.70
2019-03-19T22:28:08.812Z,18.62
2019-03-19T22:30:37.798Z,17.77
2019-03-19T22:33:08.290Z,17.98
2019-03-19T22:35:38.860Z,18.20
2019-03-19T22:38:09.686Z,17.73
2019-03-19T22:40:38.665Z,17.70
2019-03-19T22:43:07.736Z,17.10
2019-03-19T22:45:37.290Z,17.07
2019-03-19T22:48:07.330Z,17.77
2019-03-19T22:50:36.463Z,19.37
2019-03-19T22:53:05.486Z,18.12
2019-03-19T22:55:35.744Z,18.87
2019-03-19T22:58:06.903Z,18.52
2019-03-19T23:00:37.503Z,19.20
2019-03-19T23:03:08.478Z,19.50
2019-03-19T23:05:40.424Z,20.75
2019-03-19T23:08:09.402Z,21.27
2019-03-19T23:10:45.023Z,20.65
2019-03-19T23:13:11.805Z,21.65
2019-03-19T23:15:40.483Z,24.27
2019-03-19T23:18:09.467Z,23.70
2019-03-19T23:20:40.051Z,22.10
2019-03-19T23:23:10.499Z,22.25
2019-03-19T23:25:39.717Z,22.13
2019-03-19T23:28:08.859Z,22.30
2019-03-19T23:30:42.081Z,23.07
2019-03-19T23:33:13.889Z,23.87
2019-03-19T23:35:45.821Z,22.60
2019-03-19T23:38:14.769Z,23.50
2019-03-19T23:40:44.119Z,24.35
2019-03-19T23:43:16.808Z,23.32
2019-03-19T23:45:47.376Z,23.18
2019-03-19T23:48:17.949Z,21.77
2019-03-19T23:50:46.978Z,22.77
2019-03-19T23:53:17.727Z,23.07
2019-03-19T23:55:46.891Z,23.83
2019-03-19T23:58:15.825Z,23.23
